Bennettsville, SC

6:02 AM EDT on May 22, 2015 (GMT -0400)
Marlboro County-Avent | | Change Station
CLOSE
Current Station
Airport
Location: Bennettsville,
Elevation: 148 ft
Nearby Weather Stations

Elev 148 ft 34.62 °N, 79.73 °W | Updated 7 minutes ago

Overcast
Overcast
61 °F
Feels Like 61 °F
N
6
Wind Variable Wind from North

Today
High -- | Low -- °F
--% Chance of Precip.
Yesterday
High -- | Low -- °F
Precip. -- in
6:11 AM 8:19 PM
Waxing Crescent, 20% visible
Pressure 30.08 in
Visibility 10.0 miles
Clouds Scattered Clouds 3200 ft
Scattered Clouds 7000 ft
Dew Point 37 °F
Humidity 42%
Rainfall 0.03 in
Snow Depth Not available.
UV 0 out of 12
Pollen 7.60 out of 12
Air Quality Not available.
Flu Activity Local Activity
METAR KBBP 220955Z AUTO 36005KT 10SM SCT032 SCT070 16/03 A3008 RMK AO2

More Conditions Fewer Conditions

Pressure 30.08 in
Visibility 10.0 miles
Clouds Scattered Clouds 3200 ft
Scattered Clouds 7000 ft
Dew Point 37 °F
Humidity 42%
Rainfall 0.03 in
Snow Depth Not available.
UV 0 out of 12
Pollen 7.60 out of 12
Air Quality Not available.
Flu Activity Local Activity
METAR KBBP 220955Z AUTO 36005KT 10SM SCT032 SCT070 16/03 A3008 RMK AO2

More Conditions Fewer Conditions

10-Day Weather Forecast

Almanac

Astronomy

May. 22, 2015 Rise Set
Actual Time
Civil Twilight
Nautical Twilight
Astronomical Twilight
Moon
Length of Visible Light
Length of Day
Tomorrow will be .
, % of the Moon is Illuminated

Today's Extremes

State Highs State Lows

Community

WunderPhotos

Upload Photos

1,823,197 photos uploaded!

WunderBlogs® & News

Nearby

Air Quality

  Air Quality AQ Index Pollutant
Not available.

Snow Depth

Station Depth Elevation

Earthquake Activity

City Distance Mag. Time & Date
Minimum magnitude displayed is 2.5.

Coastal Water Temperatures

Place Temperature

Stations

Nearby Weather Stations

Station Location Temp. Windchill Dew Point Humidity Wind Precip. Elev Updated Type